Time;durP1;ratioP1;P1;durP2;ratioP2;P2;SDS_P1;SDS_P2;PMS_P1;PMS_P2;Temp;Humidity;BMP_temperature;BMP_pressure;BME280_temperature;BME280_humidity;BME280_pressure;Samples;Min_cycle;Max_cycle;Signal;HPM_P1;HPM_P2
2021/12/25 00:00:35;;;;;;;13.68;7.22;;;-0.20;99.90;;;;;;5029596;28;20249;-75
2021/12/25 00:03:00;;;;;;;12.48;7.07;;;-0.20;99.90;;;;;;5029930;28;20169;-74
2021/12/25 00:05:27;;;;;;;18.75;7.78;;;-0.30;99.90;;;;;;5029934;28;20170;-74
2021/12/25 00:07:52;;;;;;;14.40;7.38;;;-0.50;99.90;;;;;;5029839;28;20250;-74
2021/12/25 00:10:18;;;;;;;13.48;7.43;;;-0.50;99.90;;;;;;5029468;28;20178;-74
2021/12/25 00:12:44;;;;;;;13.50;5.85;;;-0.60;99.90;;;;;;5011896;28;20210;-74
2021/12/25 00:15:10;;;;;;;13.85;7.60;;;-0.70;99.90;;;;;;5011849;28;20193;-74
2021/12/25 00:17:36;;;;;;;12.15;6.78;;;-0.80;99.90;;;;;;5029508;28;20166;-74
2021/12/25 00:20:03;;;;;;;14.02;7.00;;;-0.80;99.90;;;;;;5029451;28;20173;-74
2021/12/25 00:22:29;;;;;;;12.73;6.80;;;-0.70;99.90;;;;;;5029387;28;20198;-74
2021/12/25 00:24:55;;;;;;;11.75;7.07;;;-0.70;99.90;;;;;;5029440;28;20166;-74
2021/12/25 00:29:55;;;;;;;14.25;6.90;;;-0.60;99.90;;;;;;5029543;28;20177;-74
2021/12/25 00:34:47;;;;;;;15.10;6.57;;;-0.80;99.90;;;;;;5029453;28;20506;-74
2021/12/25 00:37:14;;;;;;;15.50;7.72;;;-0.80;99.90;;;;;;5011579;28;20177;-74
2021/12/25 00:39:43;;;;;;;12.52;6.85;;;-0.80;99.90;;;;;;5029322;28;20189;-74
2021/12/25 00:42:10;;;;;;;17.67;7.55;;;-0.80;99.90;;;;;;5029079;28;20190;-74
2021/12/25 00:44:37;;;;;;;13.05;7.65;;;-0.80;99.90;;;;;;5011490;28;20162;-74
2021/12/25 00:47:04;;;;;;;15.30;7.13;;;-0.80;99.90;;;;;;5029278;28;20623;-74
2021/12/25 00:49:31;;;;;;;9.95;5.80;;;-0.90;99.90;;;;;;5029012;28;20154;-74
2021/12/25 00:51:58;;;;;;;14.25;8.98;;;-0.90;99.90;;;;;;5029082;28;20196;-74
2021/12/25 00:54:24;;;;;;;18.83;8.50;;;-0.90;99.90;;;;;;5029218;28;20186;-74
2021/12/25 00:56:50;;;;;;;13.00;7.38;;;-0.90;99.90;;;;;;5029164;28;20174;-74
2021/12/25 00:59:17;;;;;;;13.38;7.10;;;-0.90;99.90;;;;;;5028898;28;20228;-74
2021/12/25 01:01:44;;;;;;;24.58;8.05;;;-0.90;99.90;;;;;;5028922;28;20197;-74
2021/12/25 01:04:10;;;;;;;19.02;8.38;;;-0.90;99.90;;;;;;5011399;28;20188;-74
2021/12/25 01:06:36;;;;;;;16.48;8.40;;;-0.80;99.90;;;;;;5029139;28;20162;-74
2021/12/25 01:09:03;;;;;;;12.98;8.00;;;-0.70;99.90;;;;;;5011159;28;20170;-74
2021/12/25 01:11:30;;;;;;;16.30;7.95;;;-0.70;99.90;;;;;;5028804;28;20210;-74
2021/12/25 01:14:08;;;;;;;16.40;8.55;;;-0.70;99.90;;;;;;5028908;28;20192;-74
2021/12/25 01:37:35;;;;;;;17.05;7.15;;;-1.20;99.90;;;;;;5032684;28;20624;-74
2021/12/25 01:40:25;;;;;;;9.98;6.85;;;-1.20;99.90;;;;;;5014887;28;20172;-74
2021/12/25 01:48:26;;;;;;;13.88;7.38;;;-1.10;99.90;;;;;;5032363;28;20237;-74
2021/12/25 01:50:53;;;;;;;13.32;6.82;;;-1.20;99.90;;;;;;5032294;28;20169;-74
2021/12/25 01:53:19;;;;;;;11.90;7.20;;;-1.20;99.90;;;;;;5014493;28;20263;-74
2021/12/25 01:55:45;;;;;;;12.88;6.72;;;-1.30;99.90;;;;;;5014696;28;20166;-74
2021/12/25 01:58:11;;;;;;;13.40;7.60;;;-1.30;99.90;;;;;;5032132;28;20677;-74
2021/12/25 02:00:53;;;;;;;11.40;7.20;;;-1.30;99.90;;;;;;5031913;28;20678;-74
2021/12/25 02:03:23;;;;;;;11.05;6.32;;;-1.30;99.90;;;;;;5032149;28;20158;-74
2021/12/25 02:05:50;;;;;;;13.57;7.63;;;-1.30;99.90;;;;;;5032093;28;20170;-74
2021/12/25 02:08:16;;;;;;;14.85;7.75;;;-1.30;99.90;;;;;;5031940;28;20230;-74
2021/12/25 02:10:42;;;;;;;10.50;5.97;;;-1.20;99.90;;;;;;5031645;28;20170;-74
2021/12/25 02:13:11;;;;;;;11.75;5.85;;;-1.20;99.90;;;;;;5031861;28;20205;-74
2021/12/25 02:15:38;;;;;;;15.23;7.18;;;-1.20;99.90;;;;;;5031918;28;20150;-74
2021/12/25 02:18:13;;;;;;;13.00;6.28;;;-1.10;99.90;;;;;;5032043;28;20173;-74
2021/12/25 02:20:50;;;;;;;14.25;6.75;;;-1.20;99.90;;;;;;5031711;28;20165;-74
2021/12/25 02:23:23;;;;;;;11.80;6.57;;;-1.20;99.90;;;;;;5031789;28;20162;-74
2021/12/25 02:25:52;;;;;;;14.50;6.50;;;-1.20;99.90;;;;;;5031646;28;20170;-74
2021/12/25 02:28:19;;;;;;;11.32;6.20;;;-1.20;99.90;;;;;;5031870;28;20189;-74
2021/12/25 02:30:47;;;;;;;11.25;6.25;;;-1.20;99.90;;;;;;5031521;28;20170;-74
2021/12/25 02:33:15;;;;;;;13.45;6.97;;;-1.30;99.90;;;;;;5030125;28;20208;-74
2021/12/25 02:35:40;;;;;;;20.88;7.10;;;-1.30;99.90;;;;;;5031537;28;20170;-74
2021/12/25 02:38:06;;;;;;;11.27;7.13;;;-1.30;99.90;;;;;;5013462;28;20232;-74
2021/12/25 02:40:32;;;;;;;19.08;6.47;;;-1.40;99.90;;;;;;5031390;28;20182;-74
2021/12/25 02:42:59;;;;;;;18.75;7.75;;;-1.40;99.90;;;;;;5031234;28;20204;-74
2021/12/25 02:45:25;;;;;;;10.07;6.15;;;-1.50;99.90;;;;;;5013718;28;20185;-74
2021/12/25 02:47:55;;;;;;;13.68;6.88;;;-1.40;99.90;;;;;;5031126;28;20174;-74
2021/12/25 02:50:31;;;;;;;10.55;5.40;;;-1.40;99.90;;;;;;5031055;28;20221;-74
2021/12/25 02:52:59;;;;;;;15.25;6.60;;;-1.40;99.90;;;;;;5013333;28;20216;-74
2021/12/25 02:55:26;;;;;;;9.98;6.95;;;-1.30;99.90;;;;;;5031090;28;20154;-74
2021/12/25 02:57:52;;;;;;;9.52;6.25;;;-1.30;99.90;;;;;;5031056;28;20158;-74
2021/12/25 03:00:25;;;;;;;12.40;6.68;;;-1.30;99.90;;;;;;5030843;28;20217;-74
2021/12/25 03:02:51;;;;;;;14.90;6.80;;;-1.30;99.90;;;;;;5030765;28;20205;-74
2021/12/25 03:05:18;;;;;;;14.70;7.10;;;-1.30;99.90;;;;;;5013411;28;20253;-74
2021/12/25 03:07:45;;;;;;;19.05;7.47;;;-1.20;99.90;;;;;;5031007;28;20154;-74
2021/12/25 03:10:14;;;;;;;12.88;7.50;;;-1.20;99.90;;;;;;5030842;28;20605;-74
2021/12/25 03:12:53;;;;;;;16.52;7.50;;;-1.20;99.90;;;;;;5030725;28;20198;-74
2021/12/25 03:15:41;;;;;;;11.80;6.95;;;-1.20;99.90;;;;;;5030940;28;20158;-74
2021/12/25 03:18:07;;;;;;;18.58;7.78;;;-1.20;99.90;;;;;;5030820;28;20229;-74
2021/12/25 03:20:34;;;;;;;13.27;7.30;;;-1.20;99.90;;;;;;5012987;28;20178;-74
2021/12/25 03:23:00;;;;;;;8.27;5.82;;;-1.20;99.90;;;;;;5030770;28;20184;-74
2021/12/25 03:25:26;;;;;;;18.38;7.35;;;-1.20;99.90;;;;;;5030742;28;20178;-74
2021/12/25 03:27:54;;;;;;;10.68;6.00;;;-1.20;99.90;;;;;;5030537;28;20166;-74
2021/12/25 03:30:22;;;;;;;11.95;7.25;;;-1.20;99.90;;;;;;5030617;28;20233;-74
2021/12/25 03:32:48;;;;;;;17.98;8.52;;;-1.20;99.90;;;;;;5030209;28;20202;-74
2021/12/25 03:35:14;;;;;;;14.65;6.70;;;-1.10;99.90;;;;;;5012769;28;20581;-74
2021/12/25 03:37:40;;;;;;;9.30;5.78;;;-1.10;99.90;;;;;;5030439;28;20255;-74
2021/12/25 03:40:07;;;;;;;14.93;7.15;;;-1.10;99.90;;;;;;5030373;28;20169;-74
2021/12/25 03:42:33;;;;;;;13.98;6.18;;;-1.10;99.90;;;;;;5030231;28;20189;-74
2021/12/25 03:45:01;;;;;;;13.50;6.57;;;-1.10;99.90;;;;;;5030172;28;20177;-74
2021/12/25 03:47:33;;;;;;;12.65;6.95;;;-1.00;99.90;;;;;;5030257;28;20638;-74
2021/12/25 03:58:19;;;;;;;15.13;6.78;;;-0.90;99.90;;;;;;5030156;28;20154;-74
2021/12/25 04:00:48;;;;;;;12.57;5.90;;;-0.90;99.90;;;;;;5029808;28;20221;-74
2021/12/25 04:03:41;;;;;;;13.93;7.50;;;-0.80;99.90;;;;;;5030025;28;20158;-74
2021/12/25 04:06:09;;;;;;;13.45;6.88;;;-0.80;99.90;;;;;;5012244;28;20202;-74
2021/12/25 04:08:42;;;;;;;13.73;5.75;;;-0.80;99.90;;;;;;5012141;28;20184;-74
2021/12/25 04:11:14;;;;;;;16.42;6.95;;;-0.90;99.90;;;;;;5029656;28;20205;-74
2021/12/25 04:13:39;;;;;;;14.30;6.93;;;-0.80;99.90;;;;;;5029720;28;20190;-74
2021/12/25 04:16:05;;;;;;;12.80;6.05;;;-0.80;99.90;;;;;;5029814;28;20181;-74
2021/12/25 04:18:31;;;;;;;15.30;5.95;;;-0.80;99.90;;;;;;5029522;28;20158;-74
2021/12/25 04:20:57;;;;;;;10.23;6.35;;;-0.80;99.90;;;;;;5008525;28;20205;-74
2021/12/25 04:23:26;;;;;;;11.88;6.20;;;-0.70;99.90;;;;;;4992418;28;20196;-74
2021/12/25 04:25:57;;;;;;;10.93;6.30;;;-0.70;99.90;;;;;;5009955;28;20210;-74
2021/12/25 04:28:45;;;;;;;17.95;6.07;;;-0.70;99.90;;;;;;5009906;28;20185;-74
2021/12/25 05:04:07;;;;;;;12.50;5.53;;;-0.10;99.90;;;;;;5013682;28;20178;-74
2021/12/25 05:06:33;;;;;;;17.00;5.20;;;-0.20;99.90;;;;;;5013567;28;20154;-74
2021/12/25 05:08:59;;;;;;;8.63;4.95;;;-0.10;99.90;;;;;;5016944;28;20173;-74
2021/12/25 05:11:25;;;;;;;7.15;4.63;;;-0.20;99.90;;;;;;5015290;28;20197;-74
2021/12/25 05:13:51;;;;;;;7.65;4.80;;;-0.20;99.90;;;;;;5033073;28;20190;-74
2021/12/25 05:16:18;;;;;;;9.75;5.25;;;-0.10;99.90;;;;;;5033151;28;20185;-74
2021/12/25 05:18:44;;;;;;;8.82;4.53;;;0.10;99.90;;;;;;5032994;28;20166;-74
2021/12/25 05:21:13;;;;;;;8.95;4.63;;;0.00;99.90;;;;;;5032938;28;20190;-74
2021/12/25 05:23:40;;;;;;;8.05;5.35;;;0.00;99.90;;;;;;5032892;28;20631;-74
2021/12/25 05:26:06;;;;;;;8.90;5.43;;;0.00;99.90;;;;;;5032887;28;20176;-73
2021/12/25 05:28:40;;;;;;;9.77;5.07;;;0.00;99.90;;;;;;5032943;28;20167;-74
2021/12/25 05:31:09;;;;;;;10.07;4.28;;;0.00;99.90;;;;;;5032914;28;20721;-74
2021/12/25 05:33:36;;;;;;;10.20;4.90;;;0.10;99.90;;;;;;5032741;28;20689;-74
2021/12/25 05:36:03;;;;;;;9.93;4.90;;;0.10;99.90;;;;;;5032822;28;20185;-74
2021/12/25 05:38:29;;;;;;;7.78;4.60;;;0.00;99.90;;;;;;5032710;28;20166;-74
2021/12/25 05:40:55;;;;;;;13.68;4.50;;;0.00;99.90;;;;;;5032617;28;20174;-74
2021/12/25 05:43:22;;;;;;;6.75;4.82;;;0.00;99.90;;;;;;5032720;28;20162;-74
2021/12/25 05:45:49;;;;;;;10.07;4.15;;;0.00;99.90;;;;;;5032686;28;20162;-74
2021/12/25 05:48:14;;;;;;;8.95;4.68;;;0.00;99.90;;;;;;5032529;28;20154;-74
2021/12/25 05:50:40;;;;;;;6.40;4.03;;;-0.10;99.90;;;;;;5032474;28;20169;-74
2021/12/25 05:53:06;;;;;;;7.88;4.25;;;-0.10;99.90;;;;;;5032461;28;20182;-74
2021/12/25 05:55:33;;;;;;;11.48;5.70;;;-0.20;99.90;;;;;;5032459;28;20158;-74
2021/12/25 05:58:00;;;;;;;6.53;4.32;;;-0.20;99.90;;;;;;5032485;28;20158;-74
2021/12/25 06:00:26;;;;;;;7.80;4.60;;;-0.20;99.90;;;;;;5032146;28;20229;-73
2021/12/25 06:02:52;;;;;;;10.85;4.57;;;-0.10;99.90;;;;;;5014622;28;20619;-74
2021/12/25 06:05:19;;;;;;;8.38;5.28;;;0.00;99.90;;;;;;5032300;28;20715;-74
2021/12/25 06:07:45;;;;;;;6.10;4.25;;;0.20;99.90;;;;;;5032106;28;20163;-73
2021/12/25 06:10:12;;;;;;;8.02;5.18;;;0.30;99.90;;;;;;5014204;28;20185;-73
2021/12/25 06:12:41;;;;;;;6.95;5.07;;;0.30;99.90;;;;;;5031535;28;20210;-74
2021/12/25 06:15:09;;;;;;;10.02;5.00;;;0.30;99.90;;;;;;5031863;28;20165;-74
2021/12/25 06:17:36;;;;;;;13.25;6.85;;;0.20;99.90;;;;;;5032068;28;20163;-74
2021/12/25 06:20:03;;;;;;;10.13;5.63;;;0.00;99.90;;;;;;5031933;28;20170;-74
2021/12/25 06:22:29;;;;;;;9.25;5.88;;;-0.20;99.90;;;;;;5031926;28;20194;-74
2021/12/25 06:24:55;;;;;;;10.30;5.45;;;-0.40;99.90;;;;;;5031866;28;20154;-74
2021/12/25 06:27:22;;;;;;;15.45;5.95;;;-0.50;99.90;;;;;;5031885;28;20185;-74
2021/12/25 06:29:49;;;;;;;8.20;5.00;;;-0.60;99.90;;;;;;5031879;28;20162;-74
2021/12/25 06:32:14;;;;;;;11.40;6.15;;;-0.70;99.90;;;;;;5031671;28;20189;-74
2021/12/25 06:34:41;;;;;;;8.52;5.50;;;-0.80;99.90;;;;;;5031766;28;20158;-74
2021/12/25 06:37:07;;;;;;;9.32;5.32;;;-0.80;99.90;;;;;;5013997;28;20162;-74
2021/12/25 06:39:33;;;;;;;10.52;5.47;;;-0.80;99.90;;;;;;5031554;28;20216;-74
2021/12/25 06:42:00;;;;;;;12.38;6.40;;;-0.90;99.90;;;;;;5031483;28;20194;-74
2021/12/25 06:44:27;;;;;;;13.52;6.75;;;-0.90;99.90;;;;;;5031512;28;20158;-74
2021/12/25 06:46:56;;;;;;;16.40;6.20;;;-1.00;99.90;;;;;;5031511;28;20231;-74
2021/12/25 06:49:23;;;;;;;16.95;6.18;;;-1.00;99.90;;;;;;5031418;28;20185;-74
2021/12/25 06:51:51;;;;;;;9.57;5.88;;;-0.90;99.90;;;;;;5013647;28;20202;-74
2021/12/25 06:54:17;;;;;;;15.20;6.43;;;-0.80;99.90;;;;;;5031248;28;20220;-74
2021/12/25 06:56:44;;;;;;;15.43;6.07;;;-0.80;99.90;;;;;;5031461;28;20155;-74
2021/12/25 06:59:10;;;;;;;12.55;6.95;;;-0.80;99.90;;;;;;5031063;28;20230;-74
2021/12/25 07:01:37;;;;;;;8.90;6.15;;;-0.70;99.90;;;;;;5013558;28;20204;-74
2021/12/25 07:04:07;;;;;;;18.50;7.63;;;-0.60;99.90;;;;;;5031177;28;20163;-74
2021/12/25 07:06:35;;;;;;;9.77;6.00;;;-0.40;99.90;;;;;;5031170;28;20158;-74
2021/12/25 07:09:02;;;;;;;15.30;7.20;;;-0.30;99.90;;;;;;5013388;28;20189;-74
2021/12/25 07:11:28;;;;;;;14.38;7.32;;;-0.10;99.90;;;;;;5030396;28;20209;-74
2021/12/25 07:13:54;;;;;;;19.83;8.05;;;-0.10;99.90;;;;;;5013250;28;20288;-74
2021/12/25 07:16:20;;;;;;;13.27;8.00;;;0.00;99.90;;;;;;5030860;28;20158;-74
2021/12/25 07:18:46;;;;;;;18.75;8.45;;;0.10;99.90;;;;;;5030802;28;20150;-74
2021/12/25 07:21:12;;;;;;;15.57;7.85;;;0.10;99.90;;;;;;5030721;28;20186;-74
2021/12/25 07:23:38;;;;;;;20.08;9.73;;;0.00;99.90;;;;;;5030818;28;20166;-74
2021/12/25 07:26:04;;;;;;;17.27;10.02;;;0.10;99.90;;;;;;5029663;28;20240;-74
2021/12/25 07:28:31;;;;;;;17.90;9.88;;;0.30;99.90;;;;;;5013001;28;20176;-74
2021/12/25 07:31:00;;;;;;;19.83;9.68;;;0.30;99.90;;;;;;5030624;28;20257;-74
2021/12/25 07:33:27;;;;;;;20.70;11.88;;;0.30;99.90;;;;;;5030370;28;20197;-74
2021/12/25 07:35:54;;;;;;;19.88;10.43;;;0.50;99.90;;;;;;5030445;28;20162;-74
2021/12/25 07:38:21;;;;;;;28.50;12.07;;;0.60;99.90;;;;;;5030435;28;20181;-74
2021/12/25 07:40:47;;;;;;;19.75;10.65;;;0.70;99.90;;;;;;5012560;28;20193;-74
2021/12/25 07:43:14;;;;;;;19.35;10.85;;;1.00;99.90;;;;;;5030460;28;20166;-74
2021/12/25 07:45:40;;;;;;;24.92;11.02;;;1.10;99.90;;;;;;5030352;28;20170;-74
2021/12/25 07:48:07;;;;;;;18.70;11.52;;;1.30;99.90;;;;;;5030254;28;20172;-75
2021/12/25 07:50:35;;;;;;;25.33;11.85;;;1.30;99.90;;;;;;5030140;28;20170;-74
2021/12/25 07:53:01;;;;;;;22.52;11.35;;;1.40;99.90;;;;;;5030062;28;20194;-74
2021/12/25 07:55:32;;;;;;;24.35;11.80;;;1.40;99.90;;;;;;5030156;28;20161;-74
2021/12/25 07:57:59;;;;;;;17.38;10.52;;;1.50;99.90;;;;;;5030101;28;20620;-74
2021/12/25 08:00:26;;;;;;;22.83;11.25;;;1.40;99.90;;;;;;5029877;28;20308;-74
2021/12/25 08:02:53;;;;;;;20.30;10.32;;;1.50;99.90;;;;;;5029929;28;20220;-74
2021/12/25 08:05:20;;;;;;;18.95;9.95;;;1.70;99.90;;;;;;5012196;28;20202;-74
2021/12/25 08:07:47;;;;;;;24.23;10.52;;;2.00;99.90;;;;;;5029929;28;20155;-74
2021/12/25 08:10:16;;;;;;;19.88;10.52;;;2.20;99.90;;;;;;5029721;28;20181;-74
2021/12/25 08:12:48;;;;;;;22.42;11.20;;;2.50;99.90;;;;;;5012041;28;20209;-74
2021/12/25 08:15:16;;;;;;;22.38;9.35;;;2.90;99.90;;;;;;5029877;28;20162;-74
2021/12/25 08:17:43;;;;;;;16.75;9.57;;;3.20;99.90;;;;;;5029672;28;20189;-74
2021/12/25 08:20:09;;;;;;;15.73;9.40;;;3.20;99.90;;;;;;5029649;28;20158;-74
2021/12/25 08:22:36;;;;;;;14.43;9.40;;;3.30;99.90;;;;;;5029624;28;20194;-74
2021/12/25 08:25:04;;;;;;;18.52;9.43;;;3.50;99.90;;;;;;5029734;28;20621;-75
2021/12/25 08:27:30;;;;;;;20.20;10.43;;;3.90;99.90;;;;;;5029781;28;20184;-75
2021/12/25 08:29:56;;;;;;;15.80;10.35;;;4.70;99.90;;;;;;5029779;28;20187;-74
2021/12/25 08:32:23;;;;;;;20.17;8.50;;;4.60;99.90;;;;;;5029481;28;20193;-74
2021/12/25 08:34:50;;;;;;;14.40;8.65;;;4.40;99.90;;;;;;5011997;28;20237;-74
2021/12/25 08:37:16;;;;;;;16.27;8.82;;;4.50;99.90;;;;;;5011485;28;20200;-74
2021/12/25 08:39:42;;;;;;;17.80;9.98;;;4.70;99.90;;;;;;5029622;28;20246;-74
2021/12/25 08:42:09;;;;;;;17.98;8.88;;;4.90;99.90;;;;;;5029546;28;20261;-74
2021/12/25 08:44:53;;;;;;;22.05;10.23;;;5.70;99.90;;;;;;5029470;28;20249;-74
2021/12/25 08:47:20;;;;;;;19.08;8.98;;;6.70;99.90;;;;;;5011777;28;20554;-75
2021/12/25 08:49:47;;;;;;;20.80;10.52;;;8.30;99.90;;;;;;5011550;28;20174;-74
2021/12/25 08:52:15;;;;;;;19.67;9.82;;;8.70;99.90;;;;;;5029291;28;20189;-75
2021/12/25 08:54:42;;;;;;;15.23;8.48;;;9.30;99.90;;;;;;5029326;28;20188;-74
2021/12/25 08:57:09;;;;;;;15.55;8.88;;;9.50;99.90;;;;;;5029370;28;20185;-75
2021/12/25 08:59:36;;;;;;;20.40;9.95;;;9.90;99.90;;;;;;5029156;28;20210;-75
2021/12/25 09:02:07;;;;;;;20.85;10.93;;;10.30;99.90;;;;;;5029273;28;20222;-75
2021/12/25 09:04:36;;;;;;;16.60;10.57;;;10.50;99.90;;;;;;5029303;28;20190;-75
2021/12/25 09:07:03;;;;;;;16.08;9.88;;;10.40;99.90;;;;;;5029440;28;20162;-75
2021/12/25 09:09:28;;;;;;;16.45;9.90;;;9.90;99.90;;;;;;5029175;28;20172;-75
2021/12/25 09:11:55;;;;;;;14.18;8.93;;;9.00;99.90;;;;;;5028306;28;20269;-75
2021/12/25 09:14:21;;;;;;;16.08;9.90;;;8.90;99.90;;;;;;5029104;28;20182;-75
2021/12/25 09:16:47;;;;;;;17.38;10.30;;;9.80;99.90;;;;;;5029070;28;20185;-75
2021/12/25 09:19:14;;;;;;;17.80;9.48;;;10.50;99.90;;;;;;5029038;28;20162;-75
2021/12/25 09:21:40;;;;;;;19.75;10.82;;;9.80;99.90;;;;;;5028912;28;20214;-75
2021/12/25 09:24:06;;;;;;;16.02;9.95;;;9.30;99.90;;;;;;5029143;28;20177;-75
2021/12/25 09:26:33;;;;;;;21.83;11.13;;;9.40;99.90;;;;;;5029052;28;20173;-75
2021/12/25 09:28:59;;;;;;;23.60;10.48;;;9.50;99.90;;;;;;5029039;28;20167;-73
2021/12/25 09:31:25;;;;;;;15.55;10.55;;;9.40;99.90;;;;;;5028919;28;20201;-76
2021/12/25 09:33:54;;;;;;;15.00;9.60;;;10.00;99.90;;;;;;5028914;28;20194;-75
2021/12/25 09:36:21;;;;;;;15.80;8.68;;;10.50;99.90;;;;;;5028946;28;20161;-75
2021/12/25 09:38:48;;;;;;;16.00;8.18;;;11.50;99.90;;;;;;5029110;28;20689;-75
2021/12/25 09:41:16;;;;;;;13.23;8.30;;;11.50;99.90;;;;;;5028870;28;20197;-75
2021/12/25 09:43:48;;;;;;;14.93;6.72;;;11.20;99.90;;;;;;5028968;28;20538;-75
2021/12/25 09:46:17;;;;;;;13.82;6.68;;;11.40;99.90;;;;;;5028841;28;20162;-74
2021/12/25 09:48:44;;;;;;;9.90;4.80;;;10.80;99.90;;;;;;5030363;28;20161;-74
2021/12/25 09:51:11;;;;;;;7.60;4.43;;;10.90;99.90;;;;;;5032613;28;20276;-74
2021/12/25 09:53:37;;;;;;;9.25;4.78;;;11.20;99.90;;;;;;5032472;28;20186;-75
2021/12/25 09:56:04;;;;;;;14.10;4.03;;;11.30;99.90;;;;;;5014807;28;20167;-75
2021/12/25 09:58:30;;;;;;;11.80;3.97;;;12.10;99.90;;;;;;5032505;28;20212;-75
2021/12/25 10:00:57;;;;;;;6.18;3.13;;;12.60;99.90;;;;;;5046239;28;20224;-74
2021/12/25 10:03:27;;;;;;;6.03;3.88;;;12.60;99.90;;;;;;5052092;28;20213;-75
2021/12/25 10:05:53;;;;;;;9.43;4.60;;;12.80;99.90;;;;;;5052280;28;20222;-74
2021/12/25 10:08:26;;;;;;;8.75;4.68;;;13.00;99.90;;;;;;5052187;28;20193;-75
2021/12/25 10:11:00;;;;;;;12.23;4.95;;;13.10;99.90;;;;;;5050445;28;20181;-73
2021/12/25 10:13:29;;;;;;;10.40;6.38;;;13.20;99.90;;;;;;5051786;28;20208;-74
2021/12/25 10:16:17;;;;;;;11.88;6.05;;;13.00;99.90;;;;;;5051891;28;20181;-75
2021/12/25 10:18:43;;;;;;;11.90;7.20;;;12.90;99.90;;;;;;5051774;28;20161;-74
2021/12/25 10:21:29;;;;;;;10.60;5.55;;;12.70;99.90;;;;;;5051698;28;20217;-75
2021/12/25 10:24:15;;;;;;;12.75;6.10;;;12.60;99.90;;;;;;5050458;28;20173;-74
2021/12/25 10:26:45;;;;;;;18.30;7.65;;;12.80;99.90;;;;;;5051689;28;20630;-75
2021/12/25 10:29:24;;;;;;;12.30;7.03;;;12.80;99.90;;;;;;5051808;28;20245;-74
2021/12/25 10:31:52;;;;;;;15.25;6.47;;;12.70;99.90;;;;;;5051588;28;20203;-74
2021/12/25 10:34:24;;;;;;;11.05;6.07;;;12.50;99.90;;;;;;5050405;28;20213;-74
2021/12/25 10:36:51;;;;;;;18.95;7.20;;;12.60;99.90;;;;;;5051494;28;20169;-74
2021/12/25 10:39:22;;;;;;;16.90;6.68;;;12.70;99.90;;;;;;5051637;28;20146;-74
2021/12/25 10:41:54;;;;;;;15.23;7.03;;;12.70;99.90;;;;;;5051365;28;20195;-74
2021/12/25 10:44:31;;;;;;;17.90;7.93;;;12.40;99.90;;;;;;5051453;28;20212;-75
2021/12/25 10:47:08;;;;;;;14.48;7.85;;;11.90;99.90;;;;;;5051353;28;20196;-74
2021/12/25 10:49:41;;;;;;;18.17;8.10;;;11.60;99.90;;;;;;5051276;28;20188;-74
2021/12/25 10:52:16;;;;;;;19.13;9.25;;;11.20;99.90;;;;;;5050929;28;20223;-75
2021/12/25 10:54:46;;;;;;;19.30;10.02;;;11.50;99.90;;;;;;5050912;28;20187;-74
2021/12/25 10:57:43;;;;;;;22.05;10.88;;;11.40;99.90;;;;;;5051246;28;20165;-74
2021/12/25 11:00:15;;;;;;;19.98;8.60;;;11.50;99.90;;;;;;5039422;28;20285;-74
2021/12/25 11:02:43;;;;;;;15.63;7.47;;;10.90;99.90;;;;;;5031109;28;20200;-74
2021/12/25 11:05:30;;;;;;;17.00;6.70;;;10.40;99.90;;;;;;5031265;28;20159;-74
2021/12/25 11:08:04;;;;;;;17.92;7.40;;;9.90;99.90;;;;;;5031106;28;20158;-74
2021/12/25 11:10:30;;;;;;;11.85;5.03;;;10.00;99.90;;;;;;5030935;28;20176;-74
2021/12/25 11:12:58;;;;;;;20.63;6.72;;;10.20;99.90;;;;;;5030703;28;20206;-74
2021/12/25 11:15:30;;;;;;;18.30;6.03;;;9.90;99.90;;;;;;5030849;28;20166;-74
2021/12/25 11:18:06;;;;;;;10.77;5.20;;;9.60;99.90;;;;;;5030928;28;20159;-74
2021/12/25 11:20:37;;;;;;;20.00;5.68;;;9.90;99.90;;;;;;5030764;28;20173;-74
2021/12/25 11:23:10;;;;;;;5.90;4.28;;;10.10;99.90;;;;;;5013162;28;20170;-74
2021/12/25 11:25:37;;;;;;;12.95;5.10;;;10.50;99.90;;;;;;5030740;28;20202;-75
2021/12/25 11:28:09;;;;;;;15.27;5.22;;;10.60;99.90;;;;;;5030609;28;20158;-74
2021/12/25 11:30:44;;;;;;;9.05;5.03;;;10.80;99.90;;;;;;5013255;28;20170;-74
2021/12/25 11:33:11;;;;;;;9.05;5.22;;;11.20;99.90;;;;;;5030539;28;20247;-75
2021/12/25 11:35:38;;;;;;;9.30;5.22;;;11.50;99.90;;;;;;5030563;28;20158;-75
2021/12/25 11:38:07;;;;;;;14.05;5.53;;;12.00;99.90;;;;;;5030499;28;20169;-75
2021/12/25 11:40:38;;;;;;;17.58;6.25;;;12.20;99.90;;;;;;5030513;28;20154;-75
2021/12/25 11:43:04;;;;;;;10.23;5.75;;;12.00;99.90;;;;;;5030581;28;20163;-75
2021/12/25 11:45:41;;;;;;;26.85;8.57;;;11.90;99.90;;;;;;5030241;28;20186;-74
2021/12/25 11:48:17;;;;;;;18.73;8.07;;;11.40;99.90;;;;;;5030335;28;20162;-75
2021/12/25 11:50:46;;;;;;;16.48;8.73;;;11.10;99.90;;;;;;5030226;28;20181;-74
2021/12/25 11:53:40;;;;;;;32.47;9.60;;;11.10;99.90;;;;;;5030108;28;20189;-75
2021/12/25 11:58:43;;;;;;;10.85;7.22;;;10.50;99.90;;;;;;5030269;28;20186;-75
2021/12/25 12:01:23;;;;;;;23.40;8.25;;;10.10;99.90;;;;;;5047577;28;20229;-74
2021/12/25 12:04:00;;;;;;;16.40;6.55;;;10.00;99.90;;;;;;5049920;28;20296;-74
2021/12/25 12:06:45;;;;;;;18.80;6.25;;;9.90;99.90;;;;;;5049879;28;20165;-74
2021/12/25 12:09:33;;;;;;;7.38;5.25;;;10.10;99.90;;;;;;5054934;28;20176;-75
2021/12/25 12:12:04;;;;;;;16.80;8.30;;;10.30;99.90;;;;;;5061785;28;20197;-74
2021/12/25 12:14:31;;;;;;;15.55;7.43;;;10.40;99.90;;;;;;5049652;28;20260;-75
2021/12/25 12:16:59;;;;;;;17.85;7.00;;;10.70;99.90;;;;;;5049536;28;20165;-75
2021/12/25 12:19:35;;;;;;;11.20;6.45;;;10.80;99.90;;;;;;5049497;28;20225;-74
2021/12/25 12:26:02;;;;;;;15.70;7.25;;;10.70;99.90;;;;;;5049511;28;20231;-74
2021/12/25 12:28:00;;;;;;;13.98;7.07;;;10.40;99.90;;;;;;5045363;28;20189;-74
2021/12/25 12:30:32;;;;;;;13.15;6.15;;;10.20;99.90;;;;;;5049222;28;20161;-75
2021/12/25 12:33:11;;;;;;;27.80;7.20;;;10.20;99.90;;;;;;5049373;28;20193;-74
2021/12/25 12:35:42;;;;;;;19.02;7.63;;;10.30;99.90;;;;;;5049429;28;20165;-74
2021/12/25 12:38:37;;;;;;;22.70;8.75;;;10.30;99.90;;;;;;5049597;28;20161;-75
2021/12/25 12:41:22;;;;;;;17.25;6.97;;;10.20;99.90;;;;;;5049422;28;20204;-74
2021/12/25 12:44:04;;;;;;;13.40;6.70;;;10.00;99.90;;;;;;5049287;28;20225;-74
2021/12/25 12:46:51;;;;;;;11.70;5.65;;;9.90;99.90;;;;;;5049274;28;20165;-74
2021/12/25 12:49:19;;;;;;;13.95;5.50;;;9.60;99.90;;;;;;5049335;28;20154;-74
2021/12/25 12:51:48;;;;;;;11.00;6.32;;;9.50;99.90;;;;;;5048998;28;20197;-74
2021/12/25 12:54:44;;;;;;;11.85;5.97;;;9.40;99.90;;;;;;5049256;28;20188;-74
2021/12/25 12:57:15;;;;;;;14.80;6.30;;;9.40;99.90;;;;;;5049265;28;20173;-75
2021/12/25 12:59:46;;;;;;;20.00;6.25;;;9.30;99.90;;;;;;5041583;28;20254;-75
2021/12/25 13:02:13;;;;;;;15.05;6.38;;;9.40;99.90;;;;;;5029200;28;20189;-74
2021/12/25 13:04:51;;;;;;;14.57;5.65;;;9.50;99.90;;;;;;5029163;28;20277;-74
2021/12/25 13:07:20;;;;;;;14.43;5.68;;;9.60;99.90;;;;;;5029325;28;20162;-74
2021/12/25 13:09:56;;;;;;;23.30;5.97;;;9.70;99.90;;;;;;5029128;28;20170;-75
2021/12/25 13:15:03;;;;;;;11.82;6.97;;;9.60;99.90;;;;;;5029178;28;20168;-74
2021/12/25 13:17:28;;;;;;;16.38;6.60;;;9.60;99.90;;;;;;5029274;28;20183;-74
2021/12/25 13:19:54;;;;;;;15.70;6.18;;;9.60;99.90;;;;;;5011311;28;20250;-74
2021/12/25 13:22:21;;;;;;;20.02;6.05;;;9.60;99.90;;;;;;5028903;28;20663;-74
2021/12/25 13:24:54;;;;;;;14.80;6.00;;;9.60;99.90;;;;;;5032134;28;20197;-74
2021/12/25 13:27:20;;;;;;;10.70;6.05;;;9.40;99.90;;;;;;5033014;28;20154;-75
2021/12/25 13:29:46;;;;;;;16.90;6.13;;;9.40;99.90;;;;;;5032817;28;20165;-74
2021/12/25 13:32:12;;;;;;;11.15;6.55;;;9.30;99.90;;;;;;5032891;28;20222;-74
2021/12/25 13:34:39;;;;;;;8.75;5.53;;;9.30;99.90;;;;;;5032828;28;20194;-75
2021/12/25 13:37:13;;;;;;;11.88;6.60;;;9.30;99.90;;;;;;5015203;28;20158;-75
2021/12/25 13:39:41;;;;;;;11.40;6.30;;;9.40;99.90;;;;;;5015147;28;20173;-74
2021/12/25 13:42:11;;;;;;;10.32;6.68;;;9.30;99.90;;;;;;5032673;28;20186;-74
2021/12/25 13:44:42;;;;;;;14.93;6.75;;;9.10;99.90;;;;;;5014908;28;20166;-74
2021/12/25 13:47:25;;;;;;;9.10;6.40;;;8.90;99.90;;;;;;5032508;28;20205;-74
2021/12/25 13:50:02;;;;;;;12.57;5.90;;;8.80;99.90;;;;;;5032524;28;20190;-74
2021/12/25 13:52:34;;;;;;;9.65;6.10;;;8.70;99.90;;;;;;5032381;28;20210;-74
2021/12/25 13:55:03;;;;;;;9.00;5.47;;;8.70;99.90;;;;;;5032479;28;20185;-74
2021/12/25 13:57:31;;;;;;;16.23;5.57;;;8.60;99.90;;;;;;5032341;28;20214;-74
2021/12/25 14:00:07;;;;;;;15.52;6.00;;;8.50;99.90;;;;;;5032110;28;20289;-74
2021/12/25 14:02:33;;;;;;;10.15;6.32;;;8.50;99.90;;;;;;5032258;28;20185;-74
2021/12/25 14:04:59;;;;;;;18.08;7.72;;;8.30;99.90;;;;;;5032213;28;20222;-74
2021/12/25 14:07:28;;;;;;;20.02;7.68;;;8.20;99.90;;;;;;5032281;28;20159;-74
2021/12/25 14:10:09;;;;;;;14.85;6.15;;;8.10;99.90;;;;;;5032143;28;20257;-75
2021/12/25 14:12:38;;;;;;;17.58;6.68;;;8.10;99.90;;;;;;5014190;28;20229;-74